createdAt,value
2018-06-27T00:01:46.027Z,81.67
2018-06-27T00:04:52.033Z,80.91
2018-06-27T00:07:56.380Z,81.81
2018-06-27T00:11:02.572Z,81.73
2018-06-27T00:14:06.938Z,81.92
2018-06-27T00:17:11.270Z,81.66
2018-06-27T00:20:16.345Z,80.96
2018-06-27T00:23:20.838Z,81.48
2018-06-27T00:26:25.199Z,81.33
2018-06-27T00:29:30.194Z,81.08
2018-06-27T00:32:34.941Z,80.99
2018-06-27T00:35:39.223Z,81.45
2018-06-27T00:38:43.857Z,81.88
2018-06-27T00:41:48.429Z,81.57
2018-06-27T00:44:52.742Z,81.73
2018-06-27T00:47:57.565Z,81.17
2018-06-27T00:51:01.883Z,81.43
2018-06-27T00:54:07.772Z,82.20
2018-06-27T00:57:11.888Z,83.11
2018-06-27T01:00:16.174Z,82.63
2018-06-27T01:03:20.493Z,82.62
2018-06-27T01:06:25.608Z,82.97
2018-06-27T01:09:29.926Z,82.48
2018-06-27T01:12:34.997Z,82.64
2018-06-27T01:15:39.590Z,83.28
2018-06-27T01:18:43.941Z,83.08
2018-06-27T01:21:48.608Z,82.62
2018-06-27T01:24:52.921Z,82.91
2018-06-27T01:27:57.223Z,83.66
2018-06-27T01:31:01.538Z,84.04
2018-06-27T01:34:06.210Z,83.31
2018-06-27T01:37:10.476Z,84.41
2018-06-27T01:40:14.976Z,83.77
2018-06-27T01:43:19.262Z,83.71
2018-06-27T01:46:23.691Z,83.51
2018-06-27T01:49:27.921Z,83.54
2018-06-27T01:52:33.718Z,83.47
2018-06-27T01:55:37.998Z,83.75
2018-06-27T01:58:42.681Z,83.78
2018-06-27T02:01:47.145Z,84.30
2018-06-27T02:04:51.449Z,83.73
2018-06-27T02:07:55.662Z,83.51
2018-06-27T02:10:59.966Z,83.71
2018-06-27T02:14:04.744Z,83.64
2018-06-27T02:17:09.049Z,84.07
2018-06-27T02:20:14.195Z,83.93
2018-06-27T02:23:18.545Z,84.08
2018-06-27T02:26:22.834Z,84.87
2018-06-27T02:29:27.901Z,85.28
2018-06-27T02:32:32.210Z,83.92
2018-06-27T02:35:36.700Z,84.25
2018-06-27T02:38:41.039Z,84.28
2018-06-27T02:41:45.911Z,84.15
2018-06-27T02:44:50.319Z,84.39
2018-06-27T02:47:54.945Z,84.37
2018-06-27T02:50:59.751Z,84.32
2018-06-27T02:54:04.071Z,85.13
2018-06-27T02:57:08.337Z,85.23
2018-06-27T03:00:15.612Z,84.62
2018-06-27T03:03:19.918Z,84.69
2018-06-27T03:06:24.460Z,85.53
2018-06-27T03:09:29.690Z,85.22
2018-06-27T03:12:34.181Z,84.82
2018-06-27T03:15:38.546Z,85.42
2018-06-27T03:18:54.253Z,85.01
2018-06-27T03:21:58.544Z,83.85
2018-06-27T03:25:02.868Z,84.54
2018-06-27T03:28:07.305Z,84.68
2018-06-27T03:31:11.616Z,85.78
2018-06-27T03:34:15.905Z,85.53
2018-06-27T03:37:20.178Z,84.51
2018-06-27T03:40:24.596Z,84.93
2018-06-27T03:43:29.399Z,84.78
2018-06-27T03:46:34.170Z,85.19
2018-06-27T03:49:38.478Z,84.99
2018-06-27T03:52:47.624Z,85.31
2018-06-27T03:55:52.523Z,83.99
2018-06-27T03:58:56.947Z,83.83
2018-06-27T04:02:01.824Z,83.39
2018-06-27T04:05:06.614Z,83.75
2018-06-27T04:08:11.715Z,83.44
2018-06-27T04:11:16.046Z,83.40
2018-06-27T04:14:20.960Z,84.60
2018-06-27T04:17:25.372Z,83.05
2018-06-27T04:20:29.771Z,83.01
2018-06-27T04:23:35.131Z,83.08
2018-06-27T04:26:39.880Z,82.79
2018-06-27T04:29:44.217Z,82.46
2018-06-27T04:32:49.097Z,81.96
2018-06-27T04:35:53.396Z,81.02
2018-06-27T04:38:58.641Z,81.77
2018-06-27T04:42:03.513Z,80.48
2018-06-27T04:45:07.897Z,79.63
2018-06-27T04:48:12.484Z,79.24
2018-06-27T04:51:39.344Z,77.65
2018-06-27T04:54:44.051Z,75.95
2018-06-27T04:57:48.554Z,75.69
2018-06-27T05:00:52.861Z,76.98
2018-06-27T05:03:57.511Z,77.24
2018-06-27T05:07:01.894Z,77.91
2018-06-27T05:10:06.378Z,79.66
2018-06-27T05:13:10.809Z,79.67
2018-06-27T05:16:15.190Z,80.42
2018-06-27T05:19:21.446Z,79.17
2018-06-27T05:22:25.840Z,78.04
2018-06-27T05:25:30.733Z,78.03
2018-06-27T05:28:35.798Z,77.90
2018-06-27T05:31:40.871Z,78.76
2018-06-27T05:34:45.153Z,77.41
2018-06-27T05:37:49.463Z,77.42
2018-06-27T05:40:53.761Z,77.46
2018-06-27T05:43:58.329Z,77.87
2018-06-27T05:47:02.600Z,77.29
2018-06-27T05:50:06.920Z,76.14
2018-06-27T05:53:11.286Z,76.46
2018-06-27T05:56:15.582Z,75.63
2018-06-27T05:59:20.287Z,73.78
2018-06-27T06:02:24.581Z,73.44
2018-06-27T06:05:28.901Z,73.10
2018-06-27T06:08:33.270Z,74.21
2018-06-27T06:11:38.013Z,73.13
2018-06-27T06:14:42.242Z,72.79
2018-06-27T06:17:46.995Z,72.27
2018-06-27T06:20:51.294Z,69.44
2018-06-27T06:23:58.805Z,68.87
2018-06-27T06:27:07.098Z,66.28
2018-06-27T06:30:11.142Z,66.18
2018-06-27T06:33:15.500Z,68.32
2018-06-27T06:36:20.145Z,69.62
2018-06-27T06:39:24.462Z,70.88
2018-06-27T06:42:28.766Z,67.79
2018-06-27T06:45:33.053Z,67.62
2018-06-27T06:48:38.383Z,66.82
2018-06-27T06:51:42.660Z,67.44
2018-06-27T06:54:47.289Z,66.59
2018-06-27T06:57:51.663Z,65.84
2018-06-27T07:00:56.184Z,65.84
2018-06-27T07:04:00.676Z,67.27
2018-06-27T07:07:05.029Z,68.75
2018-06-27T07:10:10.079Z,69.17
2018-06-27T07:13:14.424Z,66.17
2018-06-27T07:16:18.729Z,62.71
2018-06-27T07:19:23.801Z,64.44
2018-06-27T07:22:29.104Z,66.96
2018-06-27T07:25:33.439Z,66.10
2018-06-27T07:28:37.925Z,67.43
2018-06-27T07:31:42.106Z,67.24
2018-06-27T07:34:46.393Z,68.47
2018-06-27T07:37:50.920Z,68.12
2018-06-27T07:40:55.978Z,67.52
2018-06-27T07:44:00.498Z,66.85
2018-06-27T07:47:04.789Z,66.63
2018-06-27T07:50:09.195Z,66.38
2018-06-27T07:53:14.914Z,63.49
2018-06-27T07:56:20.460Z,62.01
2018-06-27T07:59:24.837Z,62.43
2018-06-27T08:02:29.175Z,62.74
2018-06-27T08:05:33.492Z,64.17
2018-06-27T08:08:38.321Z,63.53
2018-06-27T08:11:43.193Z,61.94
2018-06-27T08:14:47.513Z,56.70
2018-06-27T08:17:51.918Z,55.86
2018-06-27T08:20:56.358Z,59.31
2018-06-27T08:24:01.788Z,58.48
2018-06-27T08:27:06.089Z,62.99
2018-06-27T08:30:10.531Z,60.89
2018-06-27T08:33:15.587Z,60.22
2018-06-27T08:36:19.912Z,62.28
2018-06-27T08:39:24.811Z,62.54
2018-06-27T08:42:29.413Z,61.00
2018-06-27T08:45:33.818Z,59.36
2018-06-27T08:48:38.226Z,57.28
2018-06-27T08:51:43.349Z,57.26
2018-06-27T08:54:49.143Z,55.17
2018-06-27T08:57:53.602Z,57.52
2018-06-27T09:00:58.374Z,60.15
2018-06-27T09:04:02.723Z,58.05
2018-06-27T09:07:07.706Z,60.67
2018-06-27T09:10:12.057Z,59.46
2018-06-27T09:13:16.316Z,58.26
2018-06-27T09:16:20.599Z,57.88
2018-06-27T09:19:25.078Z,56.76
2018-06-27T09:22:29.361Z,54.88
2018-06-27T09:25:33.952Z,52.87
2018-06-27T09:28:38.516Z,49.11
2018-06-27T09:31:42.880Z,47.18
2018-06-27T09:34:47.275Z,47.26
2018-06-27T09:37:51.746Z,51.23
2018-06-27T09:40:56.089Z,48.06
2018-06-27T09:44:00.475Z,46.73
2018-06-27T09:47:05.799Z,51.26
2018-06-27T09:50:10.257Z,51.30
2018-06-27T09:53:14.357Z,49.57
2018-06-27T09:56:18.800Z,49.48
2018-06-27T09:59:23.718Z,50.23
2018-06-27T10:02:28.322Z,50.36
2018-06-27T10:05:32.735Z,49.94
2018-06-27T10:08:37.139Z,50.73
2018-06-27T10:11:41.434Z,50.08
2018-06-27T10:14:45.933Z,52.30
2018-06-27T10:17:50.263Z,51.31
2018-06-27T10:20:55.414Z,54.35
2018-06-27T10:23:59.741Z,52.99
2018-06-27T10:27:04.644Z,55.20
2018-06-27T10:30:09.955Z,55.87
2018-06-27T10:33:15.377Z,55.06
2018-06-27T10:36:20.549Z,52.02
2018-06-27T10:39:25.098Z,53.09
2018-06-27T10:42:30.176Z,51.90
2018-06-27T10:45:34.731Z,50.55
2018-06-27T10:48:39.005Z,51.13
2018-06-27T10:51:43.401Z,51.96
2018-06-27T10:54:51.964Z,51.53
2018-06-27T10:57:56.356Z,50.30
2018-06-27T11:01:01.488Z,50.96
2018-06-27T11:04:05.874Z,48.92
2018-06-27T11:07:10.171Z,51.02
2018-06-27T11:10:14.676Z,49.18
2018-06-27T11:13:19.017Z,48.92
2018-06-27T11:16:23.321Z,46.70
2018-06-27T11:19:27.906Z,43.41
2018-06-27T11:22:32.209Z,44.18
2018-06-27T11:25:36.507Z,44.57
2018-06-27T11:28:40.911Z,43.97
2018-06-27T11:31:45.617Z,46.83
2018-06-27T11:34:50.522Z,44.87
2018-06-27T11:37:54.706Z,45.51
2018-06-27T11:40:59.095Z,46.04
2018-06-27T11:44:03.435Z,45.39
2018-06-27T11:47:08.373Z,44.82
2018-06-27T11:50:13.309Z,44.89
2018-06-27T11:53:17.956Z,42.75
2018-06-27T11:56:23.632Z,41.30
2018-06-27T11:59:28.466Z,41.21
2018-06-27T12:02:33.649Z,41.20
2018-06-27T12:05:38.097Z,40.09
2018-06-27T12:08:42.517Z,42.81
2018-06-27T12:11:47.092Z,43.65
2018-06-27T12:14:51.850Z,43.38
2018-06-27T12:17:57.292Z,44.84
2018-06-27T12:21:01.760Z,41.18
2018-06-27T12:24:07.072Z,40.50
2018-06-27T12:27:11.918Z,39.87
2018-06-27T12:30:21.730Z,40.50
2018-06-27T12:33:26.510Z,39.21
2018-06-27T12:36:31.192Z,40.07
2018-06-27T12:39:35.621Z,47.52
2018-06-27T12:42:40.858Z,50.47
2018-06-27T12:45:45.365Z,52.58
2018-06-27T12:48:49.837Z,52.98
2018-06-27T12:51:55.464Z,53.12
2018-06-27T12:55:03.732Z,53.72
2018-06-27T12:58:10.979Z,55.24
2018-06-27T13:01:16.379Z,55.72
2018-06-27T13:04:20.833Z,57.16
2018-06-27T13:07:25.561Z,56.82
2018-06-27T13:10:29.708Z,55.37
2018-06-27T13:13:34.639Z,56.72
2018-06-27T13:16:38.898Z,55.16
2018-06-27T13:19:43.343Z,54.66
2018-06-27T13:22:47.660Z,54.09
2018-06-27T13:25:52.015Z,53.64
2018-06-27T13:28:56.700Z,53.95
2018-06-27T13:32:01.044Z,54.18
2018-06-27T13:35:06.939Z,52.94
2018-06-27T13:38:11.322Z,52.29
2018-06-27T13:41:16.921Z,53.40
2018-06-27T13:44:21.245Z,53.33
2018-06-27T13:47:25.635Z,52.61
2018-06-27T13:50:29.962Z,53.42
2018-06-27T13:53:35.026Z,52.50
2018-06-27T13:56:39.937Z,55.07
2018-06-27T13:59:44.366Z,52.92
2018-06-27T14:02:48.822Z,55.25
2018-06-27T14:05:53.575Z,55.65
2018-06-27T14:08:58.657Z,54.12
2018-06-27T14:12:03.047Z,53.25
2018-06-27T14:15:07.494Z,52.29
2018-06-27T14:18:12.285Z,50.35
2018-06-27T14:21:16.689Z,50.14
2018-06-27T14:24:21.115Z,47.88
2018-06-27T14:27:25.957Z,47.56
2018-06-27T14:30:31.062Z,50.75
2018-06-27T14:33:36.095Z,50.97
2018-06-27T14:36:40.675Z,43.67
2018-06-27T14:39:45.297Z,41.33
2018-06-27T14:42:49.762Z,41.80
2018-06-27T14:45:54.619Z,43.78
2018-06-27T14:49:00.110Z,48.18
2018-06-27T14:52:05.734Z,51.25
2018-06-27T14:55:10.344Z,51.50
2018-06-27T14:58:14.601Z,50.70
2018-06-27T15:01:19.207Z,51.62
2018-06-27T15:04:23.539Z,51.97
2018-06-27T15:07:28.163Z,50.65
2018-06-27T15:10:32.480Z,51.31
2018-06-27T15:13:37.419Z,49.42
2018-06-27T15:16:42.468Z,50.42
2018-06-27T15:19:46.736Z,50.25
2018-06-27T15:22:51.857Z,50.13
2018-06-27T15:25:56.330Z,51.05
2018-06-27T15:29:01.362Z,50.67
2018-06-27T15:32:06.164Z,50.60
2018-06-27T15:35:10.530Z,52.26
2018-06-27T15:38:15.136Z,52.54
2018-06-27T15:41:19.715Z,53.94
2018-06-27T15:44:24.412Z,54.67
2018-06-27T15:47:28.836Z,53.60
2018-06-27T15:50:33.139Z,53.18
2018-06-27T15:53:37.524Z,52.35
2018-06-27T15:56:41.866Z,52.34
2018-06-27T15:59:52.318Z,51.94
2018-06-27T16:02:56.986Z,50.78
2018-06-27T16:06:01.447Z,50.43
2018-06-27T16:09:08.446Z,49.62
2018-06-27T16:12:13.739Z,50.62
2018-06-27T16:15:18.036Z,48.15
2018-06-27T16:18:23.058Z,49.08
2018-06-27T16:21:27.522Z,48.31
2018-06-27T16:24:31.879Z,45.82
2018-06-27T16:27:37.095Z,48.47
2018-06-27T16:30:41.526Z,47.35
2018-06-27T16:33:46.373Z,48.40
2018-06-27T16:36:50.795Z,48.18
2018-06-27T16:39:55.461Z,50.97
2018-06-27T16:43:00.400Z,50.64
2018-06-27T16:46:05.047Z,49.26
2018-06-27T16:49:10.496Z,48.78
2018-06-27T16:52:15.224Z,45.06
2018-06-27T16:55:20.836Z,43.97
2018-06-27T16:58:25.289Z,40.89
2018-06-27T17:01:29.890Z,40.64
2018-06-27T17:04:34.030Z,40.93
2018-06-27T17:07:39.519Z,42.27
2018-06-27T17:10:43.906Z,43.86
2018-06-27T17:13:48.476Z,46.36
2018-06-27T17:16:52.870Z,49.64
2018-06-27T17:19:57.182Z,48.04
2018-06-27T17:23:01.539Z,49.87
2018-06-27T17:26:05.939Z,51.18
2018-06-27T17:29:10.389Z,50.79
2018-06-27T17:32:14.734Z,51.04
2018-06-27T17:35:19.223Z,52.58
2018-06-27T17:38:24.370Z,55.60
2018-06-27T17:41:28.972Z,57.24
2018-06-27T17:44:33.453Z,56.00
2018-06-27T17:47:38.832Z,56.21
2018-06-27T17:50:43.832Z,55.99
2018-06-27T17:53:48.179Z,54.49
2018-06-27T17:56:52.389Z,55.63
2018-06-27T17:59:57.254Z,55.02
2018-06-27T18:03:01.863Z,55.31
2018-06-27T18:06:06.686Z,54.01
2018-06-27T18:09:11.771Z,54.26
2018-06-27T18:12:16.081Z,54.22
2018-06-27T18:15:20.379Z,55.47
2018-06-27T18:18:24.899Z,55.76
2018-06-27T18:21:29.192Z,56.25
2018-06-27T18:24:33.802Z,56.43
2018-06-27T18:27:39.870Z,57.75
2018-06-27T18:30:44.225Z,57.26
2018-06-27T18:33:49.233Z,58.16
2018-06-27T18:36:53.537Z,57.33
2018-06-27T18:39:57.839Z,57.42
2018-06-27T18:43:02.255Z,57.10
2018-06-27T18:46:06.910Z,57.44
2018-06-27T18:49:14.334Z,58.15
2018-06-27T18:52:19.360Z,57.56
2018-06-27T18:55:23.726Z,58.63
2018-06-27T18:58:28.806Z,57.91
2018-06-27T19:01:40.594Z,57.35
2018-06-27T19:04:52.939Z,58.97
2018-06-27T19:07:57.657Z,62.15
2018-06-27T19:11:02.962Z,62.73
2018-06-27T19:14:08.433Z,63.10
2018-06-27T19:17:12.949Z,63.65
2018-06-27T19:20:18.180Z,63.73
2018-06-27T19:23:22.759Z,64.56
2018-06-27T19:26:27.210Z,65.47
2018-06-27T19:29:31.737Z,65.86
2018-06-27T19:32:36.238Z,65.51
2018-06-27T19:35:41.501Z,66.32
2018-06-27T19:38:45.996Z,66.97
2018-06-27T19:41:50.326Z,67.42
2018-06-27T19:44:54.849Z,68.24
2018-06-27T19:47:59.169Z,67.98
2018-06-27T19:51:04.211Z,68.49
2018-06-27T19:54:08.982Z,68.49
2018-06-27T19:57:13.429Z,69.75
2018-06-27T20:00:18.564Z,69.96
2018-06-27T20:03:23.109Z,70.02
2018-06-27T20:06:27.614Z,70.47
2018-06-27T20:09:32.273Z,70.28
2018-06-27T20:12:36.605Z,70.32
2018-06-27T20:15:40.656Z,71.01
2018-06-27T20:18:44.954Z,72.08
2018-06-27T20:21:49.623Z,71.64
2018-06-27T20:24:53.918Z,71.95
2018-06-27T20:27:58.437Z,72.54
2018-06-27T20:31:02.863Z,72.49
2018-06-27T20:34:07.154Z,72.24
2018-06-27T20:37:11.553Z,72.38
2018-06-27T20:40:16.602Z,72.68
2018-06-27T20:43:21.975Z,72.87
2018-06-27T20:46:26.365Z,73.65
2018-06-27T20:49:31.169Z,73.69
2018-06-27T20:52:35.806Z,74.08
2018-06-27T20:55:40.154Z,75.35
2018-06-27T20:58:44.648Z,74.69
2018-06-27T21:01:49.034Z,74.77
2018-06-27T21:04:53.767Z,75.30
2018-06-27T21:07:58.309Z,76.11
2018-06-27T21:11:02.571Z,75.72
2018-06-27T21:14:07.601Z,75.88
2018-06-27T21:17:11.926Z,75.82
2018-06-27T21:20:16.305Z,75.57
2018-06-27T21:23:21.645Z,75.51
2018-06-27T21:26:26.121Z,75.72
2018-06-27T21:29:30.418Z,76.04
2018-06-27T21:32:34.734Z,75.80
2018-06-27T21:35:39.432Z,75.60
2018-06-27T21:38:43.818Z,75.75
2018-06-27T21:41:48.145Z,76.37
2018-06-27T21:44:52.515Z,76.23
2018-06-27T21:47:56.805Z,77.29
2018-06-27T21:51:01.183Z,77.67
2018-06-27T21:54:05.559Z,78.39
2018-06-27T21:57:09.820Z,77.38
2018-06-27T22:00:14.474Z,77.09
2018-06-27T22:03:19.302Z,77.33
2018-06-27T22:06:23.591Z,76.90
2018-06-27T22:09:28.328Z,77.17
2018-06-27T22:12:32.595Z,76.46
2018-06-27T22:15:37.007Z,75.86
2018-06-27T22:18:41.718Z,75.63
2018-06-27T22:21:46.032Z,76.39
2018-06-27T22:24:50.305Z,76.20
2018-06-27T22:27:54.577Z,75.63
2018-06-27T22:30:58.865Z,75.49
2018-06-27T22:34:03.179Z,76.10
2018-06-27T22:37:07.482Z,76.28
2018-06-27T22:40:12.047Z,76.74
2018-06-27T22:43:16.966Z,77.12
2018-06-27T22:46:21.257Z,76.54
2018-06-27T22:49:26.613Z,75.98
2018-06-27T22:52:31.044Z,76.49
2018-06-27T22:55:35.325Z,76.25
2018-06-27T22:58:40.074Z,76.39
2018-06-27T23:01:44.378Z,76.63
2018-06-27T23:04:48.858Z,76.33
2018-06-27T23:07:53.117Z,76.31
2018-06-27T23:10:57.382Z,76.43
2018-06-27T23:14:01.725Z,76.77
2018-06-27T23:17:06.270Z,76.75
2018-06-27T23:20:10.575Z,77.41
2018-06-27T23:23:15.448Z,77.09
2018-06-27T23:26:19.823Z,77.48
2018-06-27T23:29:24.205Z,77.49
2018-06-27T23:32:28.679Z,78.24
2018-06-27T23:35:33.411Z,78.77
2018-06-27T23:38:37.677Z,78.99
2018-06-27T23:41:43.063Z,78.48
2018-06-27T23:44:47.567Z,78.96
2018-06-27T23:47:51.986Z,80.34
2018-06-27T23:50:56.430Z,80.56
2018-06-27T23:54:00.970Z,83.25
2018-06-27T23:57:05.262Z,82.73
